sensor_id;sensor_type;location;lat;lon;timestamp;P1;durP1;ratioP1;P2;durP2;ratioP2
80209;SDS011;69529;37.974;23.708;2023-04-29T00:02:12;7.15;;;5.50;;
80209;SDS011;69529;37.974;23.708;2023-04-29T00:04:40;7.08;;;5.37;;
80209;SDS011;69529;37.974;23.708;2023-04-29T00:07:08;8.45;;;5.37;;
80209;SDS011;69529;37.974;23.708;2023-04-29T00:09:37;7.72;;;5.20;;
80209;SDS011;69529;37.974;23.708;2023-04-29T00:12:05;8.10;;;5.17;;
80209;SDS011;69529;37.974;23.708;2023-04-29T00:14:32;10.32;;;6.03;;
80209;SDS011;69529;37.974;23.708;2023-04-29T00:17:00;9.53;;;5.12;;
80209;SDS011;69529;37.974;23.708;2023-04-29T00:19:28;9.70;;;5.62;;
80209;SDS011;69529;37.974;23.708;2023-04-29T00:21:56;6.33;;;5.22;;
80209;SDS011;69529;37.974;23.708;2023-04-29T00:24:24;7.78;;;5.28;;
80209;SDS011;69529;37.974;23.708;2023-04-29T00:26:52;7.85;;;5.10;;
80209;SDS011;69529;37.974;23.708;2023-04-29T00:29:19;8.90;;;5.35;;
80209;SDS011;69529;37.974;23.708;2023-04-29T00:31:48;8.18;;;4.85;;
80209;SDS011;69529;37.974;23.708;2023-04-29T00:34:16;7.70;;;4.92;;
80209;SDS011;69529;37.974;23.708;2023-04-29T00:36:43;6.87;;;5.28;;
80209;SDS011;69529;37.974;23.708;2023-04-29T00:39:11;7.17;;;5.05;;
80209;SDS011;69529;37.974;23.708;2023-04-29T00:41:39;5.35;;;4.85;;
80209;SDS011;69529;37.974;23.708;2023-04-29T00:44:07;6.75;;;4.78;;
80209;SDS011;69529;37.974;23.708;2023-04-29T00:46:35;6.60;;;5.10;;
80209;SDS011;69529;37.974;23.708;2023-04-29T00:49:02;8.30;;;5.10;;
80209;SDS011;69529;37.974;23.708;2023-04-29T00:51:31;9.58;;;4.83;;
80209;SDS011;69529;37.974;23.708;2023-04-29T00:53:59;6.60;;;5.10;;
80209;SDS011;69529;37.974;23.708;2023-04-29T00:56:28;8.50;;;5.10;;
80209;SDS011;69529;37.974;23.708;2023-04-29T00:58:57;5.75;;;4.70;;
80209;SDS011;69529;37.974;23.708;2023-04-29T01:01:26;6.80;;;4.45;;
80209;SDS011;69529;37.974;23.708;2023-04-29T01:03:55;8.30;;;5.20;;
80209;SDS011;69529;37.974;23.708;2023-04-29T01:06:48;9.30;;;4.90;;
80209;SDS011;69529;37.974;23.708;2023-04-29T01:14:39;7.78;;;4.87;;
80209;SDS011;69529;37.974;23.708;2023-04-29T01:17:10;6.42;;;4.60;;
80209;SDS011;69529;37.974;23.708;2023-04-29T01:19:53;6.60;;;4.60;;
80209;SDS011;69529;37.974;23.708;2023-04-29T01:22:19;5.12;;;4.37;;
80209;SDS011;69529;37.974;23.708;2023-04-29T01:24:47;6.10;;;4.75;;
80209;SDS011;69529;37.974;23.708;2023-04-29T01:27:30;6.58;;;4.50;;
80209;SDS011;69529;37.974;23.708;2023-04-29T01:30:26;6.80;;;4.62;;
80209;SDS011;69529;37.974;23.708;2023-04-29T01:32:52;6.20;;;4.20;;
80209;SDS011;69529;37.974;23.708;2023-04-29T01:35:27;6.22;;;4.60;;
80209;SDS011;69529;37.974;23.708;2023-04-29T01:38:06;6.50;;;4.50;;
80209;SDS011;69529;37.974;23.708;2023-04-29T01:40:36;7.33;;;4.78;;
80209;SDS011;69529;37.974;23.708;2023-04-29T01:43:02;6.87;;;4.92;;
80209;SDS011;69529;37.974;23.708;2023-04-29T01:45:33;6.75;;;4.60;;
80209;SDS011;69529;37.974;23.708;2023-04-29T01:48:03;5.15;;;4.30;;
80209;SDS011;69529;37.974;23.708;2023-04-29T01:50:31;7.47;;;4.97;;
80209;SDS011;69529;37.974;23.708;2023-04-29T01:52:58;5.85;;;4.87;;
80209;SDS011;69529;37.974;23.708;2023-04-29T01:55:26;7.35;;;5.15;;
80209;SDS011;69529;37.974;23.708;2023-04-29T01:57:54;6.45;;;4.60;;
80209;SDS011;69529;37.974;23.708;2023-04-29T02:00:22;6.22;;;4.90;;
80209;SDS011;69529;37.974;23.708;2023-04-29T02:02:49;10.23;;;5.28;;
80209;SDS011;69529;37.974;23.708;2023-04-29T02:05:17;8.80;;;4.97;;
80209;SDS011;69529;37.974;23.708;2023-04-29T02:07:44;8.20;;;4.72;;
80209;SDS011;69529;37.974;23.708;2023-04-29T02:10:12;7.50;;;4.70;;
80209;SDS011;69529;37.974;23.708;2023-04-29T02:12:40;9.45;;;5.12;;
80209;SDS011;69529;37.974;23.708;2023-04-29T02:15:08;10.15;;;5.15;;
80209;SDS011;69529;37.974;23.708;2023-04-29T02:17:36;10.40;;;5.55;;
80209;SDS011;69529;37.974;23.708;2023-04-29T02:20:04;7.60;;;4.85;;
80209;SDS011;69529;37.974;23.708;2023-04-29T02:22:32;7.17;;;4.92;;
80209;SDS011;69529;37.974;23.708;2023-04-29T02:24:59;10.23;;;5.10;;
80209;SDS011;69529;37.974;23.708;2023-04-29T02:27:27;5.85;;;4.70;;
80209;SDS011;69529;37.974;23.708;2023-04-29T02:29:55;9.00;;;5.12;;
80209;SDS011;69529;37.974;23.708;2023-04-29T02:32:22;9.03;;;5.10;;
80209;SDS011;69529;37.974;23.708;2023-04-29T02:34:50;7.55;;;5.08;;
80209;SDS011;69529;37.974;23.708;2023-04-29T02:37:18;9.08;;;5.42;;
80209;SDS011;69529;37.974;23.708;2023-04-29T02:39:46;7.22;;;4.60;;
80209;SDS011;69529;37.974;23.708;2023-04-29T02:42:14;8.23;;;4.95;;
80209;SDS011;69529;37.974;23.708;2023-04-29T02:44:41;8.30;;;5.30;;
80209;SDS011;69529;37.974;23.708;2023-04-29T02:47:09;8.48;;;5.17;;
80209;SDS011;69529;37.974;23.708;2023-04-29T02:49:36;6.47;;;4.67;;
80209;SDS011;69529;37.974;23.708;2023-04-29T02:52:04;8.03;;;4.83;;
80209;SDS011;69529;37.974;23.708;2023-04-29T02:54:32;7.72;;;4.80;;
80209;SDS011;69529;37.974;23.708;2023-04-29T02:57:00;6.85;;;4.50;;
80209;SDS011;69529;37.974;23.708;2023-04-29T02:59:27;8.78;;;4.97;;
80209;SDS011;69529;37.974;23.708;2023-04-29T03:01:55;8.48;;;5.12;;
80209;SDS011;69529;37.974;23.708;2023-04-29T03:04:22;8.65;;;4.72;;
80209;SDS011;69529;37.974;23.708;2023-04-29T03:06:50;9.08;;;4.62;;
80209;SDS011;69529;37.974;23.708;2023-04-29T03:09:18;7.60;;;5.17;;
80209;SDS011;69529;37.974;23.708;2023-04-29T03:11:46;7.83;;;5.03;;
80209;SDS011;69529;37.974;23.708;2023-04-29T03:14:14;6.92;;;4.50;;
80209;SDS011;69529;37.974;23.708;2023-04-29T03:16:41;8.18;;;4.78;;
80209;SDS011;69529;37.974;23.708;2023-04-29T03:19:09;5.62;;;4.37;;
80209;SDS011;69529;37.974;23.708;2023-04-29T03:21:37;5.95;;;4.80;;
80209;SDS011;69529;37.974;23.708;2023-04-29T03:24:05;6.75;;;4.70;;
80209;SDS011;69529;37.974;23.708;2023-04-29T03:26:32;13.15;;;4.97;;
80209;SDS011;69529;37.974;23.708;2023-04-29T03:29:00;9.38;;;5.03;;
80209;SDS011;69529;37.974;23.708;2023-04-29T03:31:28;6.95;;;4.78;;
80209;SDS011;69529;37.974;23.708;2023-04-29T03:33:56;9.73;;;4.92;;
80209;SDS011;69529;37.974;23.708;2023-04-29T03:36:23;8.65;;;4.33;;
80209;SDS011;69529;37.974;23.708;2023-04-29T03:38:51;9.88;;;4.50;;
80209;SDS011;69529;37.974;23.708;2023-04-29T03:41:18;6.15;;;4.22;;
80209;SDS011;69529;37.974;23.708;2023-04-29T03:43:48;7.03;;;5.05;;
80209;SDS011;69529;37.974;23.708;2023-04-29T03:46:16;5.83;;;4.47;;
80209;SDS011;69529;37.974;23.708;2023-04-29T03:48:44;9.18;;;5.22;;
80209;SDS011;69529;37.974;23.708;2023-04-29T03:51:11;8.78;;;4.47;;
80209;SDS011;69529;37.974;23.708;2023-04-29T03:53:39;7.33;;;4.92;;
80209;SDS011;69529;37.974;23.708;2023-04-29T03:56:07;10.38;;;4.92;;
80209;SDS011;69529;37.974;23.708;2023-04-29T03:58:35;8.48;;;5.08;;
80209;SDS011;69529;37.974;23.708;2023-04-29T04:01:02;7.78;;;5.10;;
80209;SDS011;69529;37.974;23.708;2023-04-29T04:03:30;8.63;;;5.15;;
80209;SDS011;69529;37.974;23.708;2023-04-29T04:05:57;7.45;;;4.67;;
80209;SDS011;69529;37.974;23.708;2023-04-29T04:08:25;11.22;;;4.87;;
80209;SDS011;69529;37.974;23.708;2023-04-29T04:10:53;9.15;;;4.78;;
80209;SDS011;69529;37.974;23.708;2023-04-29T04:13:22;7.25;;;4.40;;
80209;SDS011;69529;37.974;23.708;2023-04-29T04:15:50;8.33;;;4.83;;
80209;SDS011;69529;37.974;23.708;2023-04-29T04:18:17;6.47;;;4.67;;
80209;SDS011;69529;37.974;23.708;2023-04-29T04:20:45;7.37;;;5.12;;
80209;SDS011;69529;37.974;23.708;2023-04-29T04:23:13;11.12;;;5.05;;
80209;SDS011;69529;37.974;23.708;2023-04-29T04:25:48;13.65;;;5.45;;
80209;SDS011;69529;37.974;23.708;2023-04-29T04:28:14;7.60;;;5.00;;
80209;SDS011;69529;37.974;23.708;2023-04-29T04:30:41;7.85;;;5.65;;
80209;SDS011;69529;37.974;23.708;2023-04-29T04:33:11;11.38;;;5.50;;
80209;SDS011;69529;37.974;23.708;2023-04-29T04:35:38;9.15;;;5.17;;
80209;SDS011;69529;37.974;23.708;2023-04-29T04:38:06;7.87;;;5.37;;
80209;SDS011;69529;37.974;23.708;2023-04-29T04:40:35;8.48;;;5.40;;
80209;SDS011;69529;37.974;23.708;2023-04-29T04:43:04;8.50;;;5.37;;
80209;SDS011;69529;37.974;23.708;2023-04-29T04:45:32;8.60;;;5.30;;
80209;SDS011;69529;37.974;23.708;2023-04-29T04:47:59;8.83;;;5.42;;
80209;SDS011;69529;37.974;23.708;2023-04-29T04:50:27;8.35;;;5.37;;
80209;SDS011;69529;37.974;23.708;2023-04-29T04:52:56;10.18;;;5.47;;
80209;SDS011;69529;37.974;23.708;2023-04-29T04:55:23;9.20;;;5.83;;
80209;SDS011;69529;37.974;23.708;2023-04-29T04:57:51;9.35;;;5.72;;
80209;SDS011;69529;37.974;23.708;2023-04-29T05:00:19;7.90;;;5.83;;
80209;SDS011;69529;37.974;23.708;2023-04-29T05:02:46;10.68;;;5.83;;
80209;SDS011;69529;37.974;23.708;2023-04-29T05:05:14;8.68;;;6.20;;
80209;SDS011;69529;37.974;23.708;2023-04-29T05:07:42;8.90;;;6.25;;
80209;SDS011;69529;37.974;23.708;2023-04-29T05:10:10;9.33;;;6.42;;
80209;SDS011;69529;37.974;23.708;2023-04-29T05:12:37;11.20;;;6.17;;
80209;SDS011;69529;37.974;23.708;2023-04-29T05:15:05;11.30;;;6.33;;
80209;SDS011;69529;37.974;23.708;2023-04-29T05:17:34;10.88;;;6.62;;
80209;SDS011;69529;37.974;23.708;2023-04-29T05:20:01;11.70;;;6.53;;
80209;SDS011;69529;37.974;23.708;2023-04-29T05:22:30;14.38;;;6.92;;
80209;SDS011;69529;37.974;23.708;2023-04-29T05:24:57;12.98;;;6.85;;
80209;SDS011;69529;37.974;23.708;2023-04-29T05:27:27;11.10;;;6.58;;
80209;SDS011;69529;37.974;23.708;2023-04-29T05:29:54;14.00;;;6.85;;
80209;SDS011;69529;37.974;23.708;2023-04-29T05:32:22;10.60;;;6.97;;
80209;SDS011;69529;37.974;23.708;2023-04-29T05:34:50;10.40;;;6.42;;
80209;SDS011;69529;37.974;23.708;2023-04-29T05:37:18;12.35;;;6.70;;
80209;SDS011;69529;37.974;23.708;2023-04-29T05:39:45;10.65;;;6.42;;
80209;SDS011;69529;37.974;23.708;2023-04-29T05:42:13;11.40;;;6.83;;
80209;SDS011;69529;37.974;23.708;2023-04-29T05:44:40;9.28;;;6.20;;
80209;SDS011;69529;37.974;23.708;2023-04-29T05:47:08;11.43;;;7.20;;
80209;SDS011;69529;37.974;23.708;2023-04-29T05:49:36;10.35;;;6.17;;
80209;SDS011;69529;37.974;23.708;2023-04-29T05:52:04;11.10;;;6.03;;
80209;SDS011;69529;37.974;23.708;2023-04-29T05:54:32;12.47;;;6.85;;
80209;SDS011;69529;37.974;23.708;2023-04-29T05:57:00;14.55;;;5.75;;
80209;SDS011;69529;37.974;23.708;2023-04-29T05:59:28;8.53;;;5.33;;
80209;SDS011;69529;37.974;23.708;2023-04-29T06:01:57;11.08;;;5.53;;
80209;SDS011;69529;37.974;23.708;2023-04-29T06:04:25;11.70;;;6.10;;
80209;SDS011;69529;37.974;23.708;2023-04-29T06:06:54;6.45;;;4.55;;
80209;SDS011;69529;37.974;23.708;2023-04-29T06:09:23;8.25;;;4.65;;
80209;SDS011;69529;37.974;23.708;2023-04-29T06:11:52;6.10;;;4.35;;
80209;SDS011;69529;37.974;23.708;2023-04-29T06:14:20;8.35;;;4.60;;
80209;SDS011;69529;37.974;23.708;2023-04-29T06:16:48;7.62;;;4.55;;
80209;SDS011;69529;37.974;23.708;2023-04-29T06:19:16;5.45;;;4.15;;
80209;SDS011;69529;37.974;23.708;2023-04-29T06:21:44;6.85;;;4.58;;
80209;SDS011;69529;37.974;23.708;2023-04-29T06:24:11;7.58;;;4.53;;
80209;SDS011;69529;37.974;23.708;2023-04-29T06:26:39;7.08;;;4.37;;
80209;SDS011;69529;37.974;23.708;2023-04-29T06:29:07;8.58;;;4.65;;
80209;SDS011;69529;37.974;23.708;2023-04-29T06:31:34;5.62;;;4.30;;
80209;SDS011;69529;37.974;23.708;2023-04-29T06:34:03;6.97;;;4.25;;
80209;SDS011;69529;37.974;23.708;2023-04-29T06:36:30;6.10;;;4.03;;
80209;SDS011;69529;37.974;23.708;2023-04-29T06:38:58;7.33;;;4.35;;
80209;SDS011;69529;37.974;23.708;2023-04-29T06:41:26;6.85;;;4.00;;
80209;SDS011;69529;37.974;23.708;2023-04-29T06:43:54;6.22;;;4.10;;
80209;SDS011;69529;37.974;23.708;2023-04-29T06:46:21;8.08;;;4.17;;
80209;SDS011;69529;37.974;23.708;2023-04-29T06:48:49;6.62;;;4.20;;
80209;SDS011;69529;37.974;23.708;2023-04-29T06:51:17;7.60;;;4.15;;
80209;SDS011;69529;37.974;23.708;2023-04-29T06:53:45;7.72;;;4.78;;
80209;SDS011;69529;37.974;23.708;2023-04-29T06:56:13;7.45;;;4.50;;
80209;SDS011;69529;37.974;23.708;2023-04-29T06:58:40;6.65;;;3.95;;
80209;SDS011;69529;37.974;23.708;2023-04-29T07:01:08;6.08;;;4.30;;
80209;SDS011;69529;37.974;23.708;2023-04-29T07:03:36;8.78;;;4.15;;
80209;SDS011;69529;37.974;23.708;2023-04-29T07:06:04;5.58;;;4.30;;
80209;SDS011;69529;37.974;23.708;2023-04-29T07:08:32;6.20;;;4.10;;
80209;SDS011;69529;37.974;23.708;2023-04-29T07:10:59;4.87;;;4.10;;
80209;SDS011;69529;37.974;23.708;2023-04-29T07:13:27;6.05;;;4.00;;
80209;SDS011;69529;37.974;23.708;2023-04-29T07:15:55;6.33;;;3.92;;
80209;SDS011;69529;37.974;23.708;2023-04-29T07:18:23;6.80;;;3.90;;
80209;SDS011;69529;37.974;23.708;2023-04-29T07:20:50;6.78;;;4.15;;
80209;SDS011;69529;37.974;23.708;2023-04-29T07:23:20;5.80;;;3.90;;
80209;SDS011;69529;37.974;23.708;2023-04-29T07:25:47;4.80;;;3.85;;
80209;SDS011;69529;37.974;23.708;2023-04-29T07:28:16;5.60;;;3.77;;
80209;SDS011;69529;37.974;23.708;2023-04-29T07:30:43;6.55;;;3.85;;
80209;SDS011;69529;37.974;23.708;2023-04-29T07:33:12;7.87;;;3.72;;
80209;SDS011;69529;37.974;23.708;2023-04-29T07:35:39;4.20;;;3.60;;
80209;SDS011;69529;37.974;23.708;2023-04-29T07:38:08;6.00;;;3.50;;
80209;SDS011;69529;37.974;23.708;2023-04-29T07:40:37;5.95;;;4.05;;
80209;SDS011;69529;37.974;23.708;2023-04-29T07:43:05;5.08;;;3.52;;
80209;SDS011;69529;37.974;23.708;2023-04-29T07:45:33;5.85;;;4.03;;
80209;SDS011;69529;37.974;23.708;2023-04-29T07:48:01;4.00;;;3.62;;
80209;SDS011;69529;37.974;23.708;2023-04-29T07:50:29;5.53;;;3.72;;
80209;SDS011;69529;37.974;23.708;2023-04-29T07:55:45;5.35;;;3.60;;
80209;SDS011;69529;37.974;23.708;2023-04-29T07:58:13;5.37;;;3.40;;
80209;SDS011;69529;37.974;23.708;2023-04-29T08:00:40;5.05;;;3.52;;
80209;SDS011;69529;37.974;23.708;2023-04-29T08:03:08;4.55;;;3.62;;
80209;SDS011;69529;37.974;23.708;2023-04-29T08:05:36;4.55;;;3.40;;
80209;SDS011;69529;37.974;23.708;2023-04-29T08:08:03;4.97;;;3.45;;
80209;SDS011;69529;37.974;23.708;2023-04-29T08:10:31;6.05;;;3.72;;
80209;SDS011;69529;37.974;23.708;2023-04-29T08:12:59;4.80;;;3.40;;
80209;SDS011;69529;37.974;23.708;2023-04-29T08:15:27;5.00;;;3.50;;
80209;SDS011;69529;37.974;23.708;2023-04-29T08:17:54;6.92;;;3.72;;
80209;SDS011;69529;37.974;23.708;2023-04-29T08:20:22;6.67;;;3.37;;
80209;SDS011;69529;37.974;23.708;2023-04-29T08:22:50;5.80;;;3.77;;
80209;SDS011;69529;37.974;23.708;2023-04-29T08:25:18;4.22;;;3.50;;
80209;SDS011;69529;37.974;23.708;2023-04-29T08:27:46;6.37;;;3.47;;
80209;SDS011;69529;37.974;23.708;2023-04-29T08:30:14;5.45;;;3.45;;
80209;SDS011;69529;37.974;23.708;2023-04-29T08:32:41;5.30;;;3.65;;
80209;SDS011;69529;37.974;23.708;2023-04-29T08:35:09;4.05;;;3.05;;
80209;SDS011;69529;37.974;23.708;2023-04-29T08:37:37;4.50;;;3.40;;
80209;SDS011;69529;37.974;23.708;2023-04-29T08:40:05;4.65;;;3.17;;
80209;SDS011;69529;37.974;23.708;2023-04-29T08:42:35;6.28;;;3.45;;
80209;SDS011;69529;37.974;23.708;2023-04-29T08:45:03;5.00;;;3.50;;
80209;SDS011;69529;37.974;23.708;2023-04-29T08:47:32;4.58;;;3.62;;
80209;SDS011;69529;37.974;23.708;2023-04-29T08:50:03;6.00;;;3.67;;
80209;SDS011;69529;37.974;23.708;2023-04-29T08:52:32;4.25;;;3.60;;
80209;SDS011;69529;37.974;23.708;2023-04-29T08:55:00;4.47;;;3.22;;
80209;SDS011;69529;37.974;23.708;2023-04-29T08:57:30;3.95;;;3.30;;
80209;SDS011;69529;37.974;23.708;2023-04-29T09:00:02;4.33;;;3.65;;
80209;SDS011;69529;37.974;23.708;2023-04-29T09:02:31;3.92;;;2.95;;
80209;SDS011;69529;37.974;23.708;2023-04-29T09:05:05;4.70;;;3.30;;
80209;SDS011;69529;37.974;23.708;2023-04-29T09:07:41;3.62;;;3.20;;
80209;SDS011;69529;37.974;23.708;2023-04-29T09:10:05;4.33;;;3.45;;
80209;SDS011;69529;37.974;23.708;2023-04-29T09:12:34;5.60;;;3.42;;
80209;SDS011;69529;37.974;23.708;2023-04-29T09:15:02;3.80;;;3.40;;
80209;SDS011;69529;37.974;23.708;2023-04-29T09:17:43;4.10;;;3.37;;
80209;SDS011;69529;37.974;23.708;2023-04-29T09:22:53;3.55;;;3.25;;
80209;SDS011;69529;37.974;23.708;2023-04-29T09:25:22;3.40;;;3.08;;
80209;SDS011;69529;37.974;23.708;2023-04-29T09:27:52;4.42;;;3.33;;
80209;SDS011;69529;37.974;23.708;2023-04-29T09:30:21;3.75;;;3.33;;
80209;SDS011;69529;37.974;23.708;2023-04-29T09:33:05;3.47;;;3.17;;
80209;SDS011;69529;37.974;23.708;2023-04-29T09:35:34;5.58;;;3.17;;
80209;SDS011;69529;37.974;23.708;2023-04-29T09:38:12;5.45;;;3.72;;
80209;SDS011;69529;37.974;23.708;2023-04-29T09:40:41;5.03;;;3.60;;
80209;SDS011;69529;37.974;23.708;2023-04-29T09:43:17;5.83;;;3.55;;
80209;SDS011;69529;37.974;23.708;2023-04-29T09:45:44;4.35;;;3.35;;
80209;SDS011;69529;37.974;23.708;2023-04-29T09:48:12;4.58;;;3.42;;
80209;SDS011;69529;37.974;23.708;2023-04-29T09:50:41;5.10;;;3.60;;
80209;SDS011;69529;37.974;23.708;2023-04-29T09:53:11;4.97;;;3.37;;
80209;SDS011;69529;37.974;23.708;2023-04-29T09:56:02;5.40;;;3.27;;
80209;SDS011;69529;37.974;23.708;2023-04-29T09:58:32;4.35;;;3.40;;
80209;SDS011;69529;37.974;23.708;2023-04-29T10:00:59;4.78;;;3.55;;
80209;SDS011;69529;37.974;23.708;2023-04-29T10:03:37;4.60;;;3.52;;
80209;SDS011;69529;37.974;23.708;2023-04-29T10:06:05;5.40;;;3.40;;
80209;SDS011;69529;37.974;23.708;2023-04-29T10:08:34;3.77;;;3.45;;
80209;SDS011;69529;37.974;23.708;2023-04-29T10:11:05;4.08;;;3.40;;
80209;SDS011;69529;37.974;23.708;2023-04-29T10:13:31;5.47;;;3.50;;
80209;SDS011;69529;37.974;23.708;2023-04-29T10:18:39;3.70;;;3.20;;
80209;SDS011;69529;37.974;23.708;2023-04-29T10:21:09;4.10;;;3.70;;
80209;SDS011;69529;37.974;23.708;2023-04-29T10:23:39;3.58;;;3.27;;
80209;SDS011;69529;37.974;23.708;2023-04-29T10:26:10;4.30;;;3.37;;
80209;SDS011;69529;37.974;23.708;2023-04-29T10:28:39;4.60;;;3.30;;
80209;SDS011;69529;37.974;23.708;2023-04-29T10:31:08;5.22;;;3.25;;
80209;SDS011;69529;37.974;23.708;2023-04-29T10:33:36;4.67;;;3.25;;
80209;SDS011;69529;37.974;23.708;2023-04-29T10:36:07;5.53;;;3.33;;
80209;SDS011;69529;37.974;23.708;2023-04-29T10:38:38;4.08;;;2.83;;
80209;SDS011;69529;37.974;23.708;2023-04-29T10:41:13;4.83;;;3.35;;
80209;SDS011;69529;37.974;23.708;2023-04-29T10:43:42;3.95;;;3.55;;
80209;SDS011;69529;37.974;23.708;2023-04-29T10:46:21;4.03;;;3.27;;
80209;SDS011;69529;37.974;23.708;2023-04-29T10:49:01;4.33;;;3.50;;
80209;SDS011;69529;37.974;23.708;2023-04-29T10:51:33;4.90;;;3.37;;
80209;SDS011;69529;37.974;23.708;2023-04-29T10:54:09;4.05;;;3.50;;
80209;SDS011;69529;37.974;23.708;2023-04-29T10:57:01;5.83;;;2.92;;
80209;SDS011;69529;37.974;23.708;2023-04-29T11:02:03;4.12;;;3.22;;
80209;SDS011;69529;37.974;23.708;2023-04-29T11:04:30;3.40;;;3.10;;
80209;SDS011;69529;37.974;23.708;2023-04-29T11:06:58;5.12;;;3.27;;
80209;SDS011;69529;37.974;23.708;2023-04-29T11:09:30;5.30;;;3.33;;
80209;SDS011;69529;37.974;23.708;2023-04-29T11:12:00;4.67;;;3.20;;
80209;SDS011;69529;37.974;23.708;2023-04-29T11:14:38;4.47;;;3.30;;
80209;SDS011;69529;37.974;23.708;2023-04-29T11:17:12;3.95;;;3.25;;
80209;SDS011;69529;37.974;23.708;2023-04-29T11:19:41;3.70;;;3.22;;
80209;SDS011;69529;37.974;23.708;2023-04-29T11:22:27;3.50;;;3.20;;
80209;SDS011;69529;37.974;23.708;2023-04-29T11:24:57;3.62;;;3.00;;
80209;SDS011;69529;37.974;23.708;2023-04-29T11:27:34;3.58;;;3.00;;
80209;SDS011;69529;37.974;23.708;2023-04-29T11:30:03;3.50;;;3.15;;
80209;SDS011;69529;37.974;23.708;2023-04-29T11:32:33;4.72;;;3.30;;
80209;SDS011;69529;37.974;23.708;2023-04-29T11:37:39;4.33;;;3.30;;
80209;SDS011;69529;37.974;23.708;2023-04-29T11:40:08;3.62;;;3.10;;
80209;SDS011;69529;37.974;23.708;2023-04-29T11:42:44;5.03;;;3.15;;
80209;SDS011;69529;37.974;23.708;2023-04-29T11:45:13;3.77;;;3.15;;
80209;SDS011;69529;37.974;23.708;2023-04-29T11:47:43;3.60;;;3.17;;
80209;SDS011;69529;37.974;23.708;2023-04-29T11:50:13;3.37;;;3.08;;
80209;SDS011;69529;37.974;23.708;2023-04-29T11:52:44;3.55;;;3.25;;
80209;SDS011;69529;37.974;23.708;2023-04-29T11:55:13;5.12;;;3.30;;
80209;SDS011;69529;37.974;23.708;2023-04-29T11:57:41;6.47;;;3.33;;
80209;SDS011;69529;37.974;23.708;2023-04-29T12:00:09;6.30;;;3.50;;
80209;SDS011;69529;37.974;23.708;2023-04-29T12:02:38;5.83;;;3.20;;
80209;SDS011;69529;37.974;23.708;2023-04-29T12:05:11;3.52;;;3.10;;
80209;SDS011;69529;37.974;23.708;2023-04-29T12:07:40;5.03;;;3.35;;
80209;SDS011;69529;37.974;23.708;2023-04-29T12:10:09;4.03;;;3.30;;
80209;SDS011;69529;37.974;23.708;2023-04-29T12:12:37;4.67;;;3.02;;
80209;SDS011;69529;37.974;23.708;2023-04-29T12:15:07;4.67;;;3.52;;
80209;SDS011;69529;37.974;23.708;2023-04-29T12:17:36;4.67;;;3.40;;
80209;SDS011;69529;37.974;23.708;2023-04-29T12:20:05;3.75;;;3.40;;
80209;SDS011;69529;37.974;23.708;2023-04-29T12:22:35;5.17;;;3.40;;
80209;SDS011;69529;37.974;23.708;2023-04-29T12:25:02;3.90;;;3.60;;
80209;SDS011;69529;37.974;23.708;2023-04-29T12:27:31;4.42;;;3.55;;
80209;SDS011;69529;37.974;23.708;2023-04-29T12:29:59;5.40;;;3.47;;
80209;SDS011;69529;37.974;23.708;2023-04-29T12:32:26;4.00;;;3.35;;
80209;SDS011;69529;37.974;23.708;2023-04-29T12:34:54;4.30;;;3.70;;
80209;SDS011;69529;37.974;23.708;2023-04-29T12:37:22;4.40;;;3.50;;
80209;SDS011;69529;37.974;23.708;2023-04-29T12:39:50;4.78;;;3.50;;
80209;SDS011;69529;37.974;23.708;2023-04-29T12:42:20;5.15;;;3.47;;
80209;SDS011;69529;37.974;23.708;2023-04-29T12:44:48;4.17;;;3.35;;
80209;SDS011;69529;37.974;23.708;2023-04-29T12:47:15;4.45;;;3.50;;
80209;SDS011;69529;37.974;23.708;2023-04-29T12:49:43;5.65;;;3.60;;
80209;SDS011;69529;37.974;23.708;2023-04-29T12:52:12;5.37;;;3.55;;
80209;SDS011;69529;37.974;23.708;2023-04-29T12:54:40;5.70;;;3.80;;
80209;SDS011;69529;37.974;23.708;2023-04-29T12:57:09;4.10;;;3.12;;
80209;SDS011;69529;37.974;23.708;2023-04-29T12:59:37;5.08;;;3.67;;
80209;SDS011;69529;37.974;23.708;2023-04-29T13:02:08;6.33;;;3.70;;
80209;SDS011;69529;37.974;23.708;2023-04-29T13:04:36;3.55;;;3.17;;
80209;SDS011;69529;37.974;23.708;2023-04-29T13:07:04;3.85;;;3.35;;
80209;SDS011;69529;37.974;23.708;2023-04-29T13:09:32;5.83;;;3.33;;
80209;SDS011;69529;37.974;23.708;2023-04-29T13:12:01;3.85;;;3.45;;
80209;SDS011;69529;37.974;23.708;2023-04-29T13:14:29;4.95;;;3.70;;
80209;SDS011;69529;37.974;23.708;2023-04-29T13:16:56;3.30;;;3.00;;
80209;SDS011;69529;37.974;23.708;2023-04-29T13:19:24;4.78;;;3.40;;
80209;SDS011;69529;37.974;23.708;2023-04-29T13:21:52;5.87;;;3.33;;
80209;SDS011;69529;37.974;23.708;2023-04-29T13:24:19;3.65;;;3.30;;
80209;SDS011;69529;37.974;23.708;2023-04-29T13:26:47;3.60;;;3.30;;
80209;SDS011;69529;37.974;23.708;2023-04-29T13:29:15;4.35;;;3.65;;
80209;SDS011;69529;37.974;23.708;2023-04-29T13:31:42;3.70;;;3.25;;
80209;SDS011;69529;37.974;23.708;2023-04-29T13:34:10;3.75;;;3.27;;
80209;SDS011;69529;37.974;23.708;2023-04-29T13:36:38;3.75;;;3.42;;
80209;SDS011;69529;37.974;23.708;2023-04-29T13:39:05;3.50;;;3.08;;
80209;SDS011;69529;37.974;23.708;2023-04-29T13:41:33;4.15;;;3.25;;
80209;SDS011;69529;37.974;23.708;2023-04-29T13:44:01;3.67;;;3.37;;
80209;SDS011;69529;37.974;23.708;2023-04-29T13:46:29;4.78;;;3.50;;
80209;SDS011;69529;37.974;23.708;2023-04-29T13:48:57;4.33;;;3.35;;
80209;SDS011;69529;37.974;23.708;2023-04-29T13:51:25;3.77;;;3.35;;
80209;SDS011;69529;37.974;23.708;2023-04-29T13:53:53;4.05;;;3.50;;
80209;SDS011;69529;37.974;23.708;2023-04-29T13:56:21;3.95;;;3.12;;
80209;SDS011;69529;37.974;23.708;2023-04-29T13:58:50;4.40;;;3.30;;
80209;SDS011;69529;37.974;23.708;2023-04-29T14:01:18;4.67;;;3.30;;
80209;SDS011;69529;37.974;23.708;2023-04-29T14:03:47;4.58;;;3.40;;
80209;SDS011;69529;37.974;23.708;2023-04-29T14:06:14;4.70;;;3.33;;
80209;SDS011;69529;37.974;23.708;2023-04-29T14:08:42;3.72;;;3.00;;
80209;SDS011;69529;37.974;23.708;2023-04-29T14:11:10;4.92;;;3.10;;
80209;SDS011;69529;37.974;23.708;2023-04-29T14:13:38;4.17;;;3.33;;
80209;SDS011;69529;37.974;23.708;2023-04-29T14:16:06;4.50;;;3.72;;
80209;SDS011;69529;37.974;23.708;2023-04-29T14:18:34;4.15;;;2.95;;
80209;SDS011;69529;37.974;23.708;2023-04-29T14:21:02;5.08;;;3.58;;
80209;SDS011;69529;37.974;23.708;2023-04-29T14:23:30;5.17;;;3.25;;
80209;SDS011;69529;37.974;23.708;2023-04-29T14:25:58;4.25;;;3.35;;
80209;SDS011;69529;37.974;23.708;2023-04-29T14:28:26;5.40;;;3.27;;
80209;SDS011;69529;37.974;23.708;2023-04-29T14:30:54;3.77;;;3.00;;
80209;SDS011;69529;37.974;23.708;2023-04-29T14:33:22;5.37;;;3.30;;
80209;SDS011;69529;37.974;23.708;2023-04-29T14:35:50;3.75;;;3.05;;
80209;SDS011;69529;37.974;23.708;2023-04-29T14:38:17;4.05;;;3.42;;
80209;SDS011;69529;37.974;23.708;2023-04-29T14:40:45;3.37;;;3.00;;
80209;SDS011;69529;37.974;23.708;2023-04-29T14:43:12;3.75;;;3.40;;
80209;SDS011;69529;37.974;23.708;2023-04-29T14:45:40;3.30;;;3.10;;
80209;SDS011;69529;37.974;23.708;2023-04-29T14:48:08;3.77;;;3.02;;
80209;SDS011;69529;37.974;23.708;2023-04-29T14:50:36;4.08;;;3.10;;
80209;SDS011;69529;37.974;23.708;2023-04-29T14:53:04;5.28;;;3.30;;
80209;SDS011;69529;37.974;23.708;2023-04-29T14:55:33;3.35;;;3.05;;
80209;SDS011;69529;37.974;23.708;2023-04-29T14:58:01;4.00;;;3.10;;
80209;SDS011;69529;37.974;23.708;2023-04-29T15:00:29;4.12;;;3.08;;
80209;SDS011;69529;37.974;23.708;2023-04-29T15:02:57;3.90;;;3.20;;